Time;durP1;ratioP1;P1;durP2;ratioP2;P2;SDS_P1;SDS_P2;PMS_P1;PMS_P2;Temp;Humidity;BMP_temperature;BMP_pressure;BME280_temperature;BME280_humidity;BME280_pressure;Samples;Min_cycle;Max_cycle;Signal;HPM_P1;HPM_P2
2021/12/24 00:01:02;;;;;;;5.22;4.35;;;7.50;78.30;;;;;;5090726;28;20040;-55
2021/12/24 00:03:28;;;;;;;5.22;4.35;;;7.70;78.50;;;;;;5091009;28;20398;-56
2021/12/24 00:05:54;;;;;;;5.50;4.55;;;7.50;78.30;;;;;;5090983;28;20060;-55
2021/12/24 00:08:20;;;;;;;5.78;4.25;;;7.60;78.40;;;;;;5090587;28;20047;-56
2021/12/24 00:10:49;;;;;;;4.47;3.78;;;7.60;78.40;;;;;;5090884;28;20044;-57
2021/12/24 00:13:16;;;;;;;5.45;4.00;;;7.50;78.40;;;;;;5090989;28;20051;-57
2021/12/24 00:16:06;;;;;;;5.25;4.28;;;7.50;78.30;;;;;;5073094;28;20052;-55
2021/12/24 00:18:41;;;;;;;4.75;3.97;;;7.60;78.50;;;;;;5108373;28;20055;-56
2021/12/24 00:37:22;;;;;;;4.72;4.03;;;7.50;78.40;;;;;;5133594;27;20051;-56
2021/12/24 00:40:31;;;;;;;4.78;3.90;;;7.50;78.40;;;;;;5133179;27;20042;-56
2021/12/24 00:42:43;;;;;;;5.90;4.07;;;7.50;78.40;;;;;;5112959;27;20051;-55
2021/12/24 00:45:10;;;;;;;4.68;3.70;;;7.50;78.40;;;;;;5114151;28;20062;-55
2021/12/24 00:47:35;;;;;;;4.78;3.75;;;7.60;78.50;;;;;;5123542;27;20098;-56
2021/12/24 00:50:06;;;;;;;4.72;4.03;;;7.60;78.50;;;;;;5094475;28;20426;-55
2021/12/24 00:55:06;;;;;;;4.60;3.38;;;7.60;78.50;;;;;;5133509;28;20127;-56
2021/12/24 00:57:41;;;;;;;4.32;3.70;;;7.60;78.50;;;;;;5133277;28;20108;-56
2021/12/24 01:00:21;;;;;;;4.53;3.50;;;7.60;78.50;;;;;;5133699;28;20381;-56
2021/12/24 01:02:48;;;;;;;4.68;3.53;;;7.60;78.50;;;;;;5132409;28;20401;-57
2021/12/24 01:05:16;;;;;;;4.05;3.65;;;7.60;78.60;;;;;;5112666;28;20123;-55
2021/12/24 01:07:45;;;;;;;4.20;3.65;;;7.60;78.60;;;;;;5094107;28;20054;-56
2021/12/24 01:10:12;;;;;;;4.95;3.78;;;7.60;78.60;;;;;;5128876;28;20059;-56
2021/12/24 01:12:38;;;;;;;3.83;3.30;;;7.60;78.60;;;;;;5133556;28;20050;-56
2021/12/24 01:15:06;;;;;;;5.10;4.15;;;7.60;78.60;;;;;;5133101;28;20460;-56
2021/12/24 01:25:49;;;;;;;4.30;3.63;;;7.60;78.60;;;;;;5090098;28;20515;-56
2021/12/24 01:44:44;;;;;;;3.88;3.50;;;7.60;78.60;;;;;;5114382;28;20052;-56
2021/12/24 01:47:09;;;;;;;3.35;2.97;;;7.60;78.60;;;;;;5096526;28;20164;-56
2021/12/24 01:49:35;;;;;;;3.83;3.42;;;7.60;78.60;;;;;;5096583;28;20518;-56
2021/12/24 01:52:03;;;;;;;3.53;3.15;;;7.60;78.70;;;;;;5112990;28;20507;-56
2021/12/24 01:54:29;;;;;;;3.92;3.00;;;7.60;78.70;;;;;;5096469;28;20080;-56
2021/12/24 01:56:55;;;;;;;2.92;2.55;;;7.60;78.70;;;;;;5138872;27;20066;-57
2021/12/24 01:59:21;;;;;;;4.05;3.20;;;7.60;78.60;;;;;;5143183;27;20039;-56
2021/12/24 02:01:47;;;;;;;3.47;3.15;;;7.60;79.30;;;;;;5136815;27;20123;-56
2021/12/24 02:04:14;;;;;;;3.25;2.70;;;7.60;78.60;;;;;;5157213;27;20043;-56
2021/12/24 02:06:41;;;;;;;3.80;3.13;;;7.60;78.70;;;;;;5156708;27;20038;-56
2021/12/24 02:09:07;;;;;;;3.80;3.22;;;7.60;78.70;;;;;;5156529;27;20498;-57
2021/12/24 02:11:38;;;;;;;4.35;3.58;;;7.60;78.70;;;;;;5156796;27;20121;-56
2021/12/24 02:14:10;;;;;;;3.33;2.85;;;7.60;78.70;;;;;;5155569;27;20059;-57
2021/12/24 02:29:59;;;;;;;3.58;2.92;;;7.60;78.70;;;;;;5135690;27;20074;-57
2021/12/24 02:32:25;;;;;;;3.10;2.80;;;7.60;78.70;;;;;;5136073;27;20399;-57
2021/12/24 02:34:51;;;;;;;4.00;2.80;;;7.60;78.70;;;;;;5136145;27;20104;-57
2021/12/24 02:37:17;;;;;;;4.43;3.17;;;7.60;78.70;;;;;;5135888;27;20050;-56
2021/12/24 02:39:42;;;;;;;3.20;2.90;;;7.60;78.70;;;;;;5135359;27;20054;-55
2021/12/24 02:42:13;;;;;;;3.60;2.80;;;7.60;78.70;;;;;;5135684;27;20043;-57
2021/12/24 02:44:39;;;;;;;2.92;2.53;;;7.60;78.70;;;;;;5135723;27;20040;-56
2021/12/24 02:47:15;;;;;;;3.42;2.88;;;7.60;78.70;;;;;;5135466;27;20046;-57
2021/12/24 02:55:08;;;;;;;3.95;3.05;;;7.60;78.70;;;;;;5136930;27;20086;-57
2021/12/24 02:57:35;;;;;;;3.30;2.72;;;7.60;78.70;;;;;;5155555;27;20134;-57
2021/12/24 03:00:14;;;;;;;3.60;2.75;;;7.60;78.70;;;;;;5151475;27;20084;-56
2021/12/24 03:02:42;;;;;;;2.90;2.60;;;7.60;78.70;;;;;;5149278;27;20035;-56
2021/12/24 03:05:08;;;;;;;3.05;2.60;;;7.60;78.80;;;;;;5137407;27;20093;-57
2021/12/24 03:07:33;;;;;;;2.90;2.55;;;7.60;78.70;;;;;;5145670;27;20494;-57
2021/12/24 03:10:00;;;;;;;3.00;2.35;;;7.60;78.70;;;;;;5134533;27;20051;-56
2021/12/24 03:12:30;;;;;;;3.60;3.00;;;7.60;78.70;;;;;;5151997;27;20053;-56
2021/12/24 03:14:56;;;;;;;2.92;2.45;;;7.60;78.80;;;;;;5155831;27;20042;-56
2021/12/24 03:17:24;;;;;;;3.03;2.47;;;7.70;79.20;;;;;;5155947;27;20069;-57
2021/12/24 03:19:52;;;;;;;2.90;2.30;;;7.60;78.80;;;;;;5155780;27;20495;-57
2021/12/24 03:24:49;;;;;;;3.03;2.53;;;7.60;78.80;;;;;;5136142;27;20510;-56
2021/12/24 03:27:16;;;;;;;2.70;2.45;;;7.60;78.80;;;;;;5134299;27;20039;-57
2021/12/24 03:29:41;;;;;;;3.38;2.55;;;7.70;78.80;;;;;;5134901;27;20043;-57
2021/12/24 03:32:08;;;;;;;2.85;2.55;;;7.70;78.80;;;;;;5116319;27;20054;-56
2021/12/24 03:34:34;;;;;;;3.17;2.70;;;7.70;78.80;;;;;;5134867;27;20039;-56
2021/12/24 03:37:00;;;;;;;3.67;2.90;;;7.70;78.80;;;;;;5134630;27;20378;-56
2021/12/24 03:39:26;;;;;;;3.90;2.83;;;7.70;78.80;;;;;;5134938;27;20039;-57
2021/12/24 03:41:52;;;;;;;3.25;2.60;;;7.60;78.80;;;;;;5134386;27;20046;-54
2021/12/24 03:44:19;;;;;;;3.08;2.67;;;7.70;78.80;;;;;;5134675;27;20039;-55
2021/12/24 03:46:58;;;;;;;2.60;2.38;;;7.70;79.40;;;;;;5134811;27;20050;-56
2021/12/24 03:49:37;;;;;;;3.28;2.95;;;7.70;78.80;;;;;;5134502;27;20047;-56
2021/12/24 03:52:19;;;;;;;3.53;2.67;;;7.70;78.80;;;;;;5134225;27;20546;-56
2021/12/24 03:54:59;;;;;;;4.00;2.97;;;7.70;79.50;;;;;;5134412;27;20053;-57
2021/12/24 03:57:41;;;;;;;3.90;2.80;;;7.70;78.90;;;;;;5134105;27;20122;-55
2021/12/24 04:00:23;;;;;;;2.95;2.38;;;7.70;78.90;;;;;;5142481;27;20041;-57
2021/12/24 04:02:49;;;;;;;3.30;2.60;;;7.70;78.80;;;;;;5155007;27;20134;-57
2021/12/24 04:05:15;;;;;;;3.53;2.80;;;7.60;78.80;;;;;;5153914;27;20129;-55
2021/12/24 04:07:41;;;;;;;3.25;2.78;;;7.70;78.80;;;;;;5152896;27;20047;-56
2021/12/24 04:10:20;;;;;;;3.55;2.80;;;7.70;78.90;;;;;;5146074;27;20054;-56
2021/12/24 04:12:45;;;;;;;2.92;2.58;;;7.70;78.90;;;;;;5134255;27;20051;-56
2021/12/24 04:15:11;;;;;;;2.72;2.50;;;7.70;78.90;;;;;;5134607;27;20122;-56
2021/12/24 04:17:39;;;;;;;2.72;2.47;;;7.70;78.90;;;;;;5134473;27;20035;-55
2021/12/24 04:25:34;;;;;;;2.63;2.22;;;7.70;78.90;;;;;;5151259;27;20563;-56
2021/12/24 04:28:00;;;;;;;4.07;3.08;;;7.70;78.90;;;;;;5154468;27;20038;-57
2021/12/24 04:30:32;;;;;;;3.58;2.58;;;7.70;78.90;;;;;;5153898;27;20087;-56
2021/12/24 04:38:09;;;;;;;3.28;2.70;;;7.70;79.00;;;;;;5135807;27;20137;-57
2021/12/24 04:51:34;;;;;;;2.67;2.20;;;7.70;78.90;;;;;;5133407;27;20395;-56
2021/12/24 05:05:18;;;;;;;4.45;2.97;;;7.70;78.90;;;;;;5069856;28;20102;-56
2021/12/24 05:10:16;;;;;;;4.13;3.28;;;7.70;79.00;;;;;;5080166;28;20052;-57
2021/12/24 05:12:42;;;;;;;3.55;2.92;;;7.70;79.00;;;;;;5094121;28;20051;-56
2021/12/24 05:15:10;;;;;;;2.72;2.47;;;7.70;79.00;;;;;;5110780;28;20059;-56
2021/12/24 05:23:06;;;;;;;2.50;2.30;;;7.70;79.00;;;;;;5077029;28;20123;-57
2021/12/24 05:25:34;;;;;;;3.55;2.78;;;7.70;79.00;;;;;;5093620;28;20127;-56
2021/12/24 05:27:59;;;;;;;3.28;2.55;;;7.70;79.00;;;;;;5100223;28;20044;-56
2021/12/24 05:30:25;;;;;;;2.53;2.20;;;7.70;79.00;;;;;;5111236;28;20116;-55
2021/12/24 05:32:51;;;;;;;2.33;2.10;;;7.80;79.10;;;;;;5076762;28;20100;-56
2021/12/24 05:35:17;;;;;;;3.65;2.67;;;7.70;79.00;;;;;;5099086;28;20116;-56
2021/12/24 05:37:43;;;;;;;2.97;2.17;;;7.80;79.00;;;;;;5082901;28;20079;-56
2021/12/24 05:40:09;;;;;;;3.67;2.60;;;7.70;79.00;;;;;;5093615;28;20040;-55
2021/12/24 05:42:35;;;;;;;2.90;2.25;;;7.80;79.10;;;;;;5132357;27;20067;-57
2021/12/24 05:45:04;;;;;;;3.38;2.58;;;7.80;79.00;;;;;;5137045;27;20043;-57
2021/12/24 05:47:31;;;;;;;2.80;2.50;;;7.80;79.10;;;;;;5136993;27;20050;-56
2021/12/24 05:49:57;;;;;;;3.20;2.53;;;7.80;79.00;;;;;;5136641;27;20047;-55
2021/12/24 05:52:23;;;;;;;3.30;2.15;;;7.80;79.10;;;;;;5136707;27;20387;-56
2021/12/24 05:54:48;;;;;;;2.42;2.20;;;7.80;79.10;;;;;;5136616;27;20047;-56
2021/12/24 05:57:14;;;;;;;3.78;2.40;;;7.80;79.10;;;;;;5136731;27;20115;-56
2021/12/24 05:59:40;;;;;;;2.70;2.20;;;7.80;79.10;;;;;;5136891;27;20031;-56
2021/12/24 06:02:06;;;;;;;2.10;1.90;;;7.80;79.10;;;;;;5136903;27;20576;-55
2021/12/24 06:04:32;;;;;;;2.60;2.15;;;7.80;79.00;;;;;;5136821;27;20035;-56
2021/12/24 06:06:58;;;;;;;2.22;1.95;;;7.80;79.10;;;;;;5136357;27;20039;-56
2021/12/24 06:09:24;;;;;;;2.42;2.05;;;7.80;79.00;;;;;;5136051;27;20137;-56
2021/12/24 06:11:51;;;;;;;3.05;2.25;;;7.80;79.00;;;;;;5135063;27;20089;-56
2021/12/24 06:14:16;;;;;;;2.85;1.65;;;7.80;79.00;;;;;;5136444;27;20039;-56
2021/12/24 06:16:58;;;;;;;2.60;2.00;;;7.80;79.00;;;;;;5136460;27;20540;-56
2021/12/24 06:19:26;;;;;;;2.35;1.90;;;7.80;79.00;;;;;;5136297;27;20097;-56
2021/12/24 06:21:57;;;;;;;2.78;2.17;;;7.80;79.00;;;;;;5135525;27;20042;-57
2021/12/24 06:24:22;;;;;;;3.60;2.15;;;7.80;79.00;;;;;;5136215;27;20414;-56
2021/12/24 06:26:49;;;;;;;2.53;2.10;;;7.80;79.00;;;;;;5135169;27;20028;-57
2021/12/24 06:29:16;;;;;;;3.53;2.10;;;7.80;79.00;;;;;;5135676;27;20440;-56
2021/12/24 06:31:42;;;;;;;2.15;1.88;;;7.80;79.00;;;;;;5157014;27;20086;-56
2021/12/24 06:34:07;;;;;;;1.90;1.70;;;7.80;79.00;;;;;;5156582;27;20038;-55
2021/12/24 06:36:36;;;;;;;2.88;2.08;;;7.80;79.00;;;;;;5156477;27;20055;-56
2021/12/24 06:39:04;;;;;;;2.05;1.50;;;7.80;79.00;;;;;;5156299;27;20050;-55
2021/12/24 06:41:31;;;;;;;2.97;2.08;;;7.80;79.00;;;;;;5157752;27;20034;-56
2021/12/24 06:43:57;;;;;;;4.80;2.10;;;7.80;78.90;;;;;;5167963;27;20499;-55
2021/12/24 06:46:22;;;;;;;2.67;1.95;;;7.80;79.00;;;;;;5156730;27;20088;-56
2021/12/24 06:48:53;;;;;;;3.13;1.70;;;7.80;78.90;;;;;;5172314;27;20045;-56
2021/12/24 06:51:20;;;;;;;2.70;1.73;;;7.80;79.00;;;;;;5177606;27;20038;-56
2021/12/24 06:53:45;;;;;;;2.67;1.90;;;7.80;78.90;;;;;;5176731;27;20070;-56
2021/12/24 06:56:11;;;;;;;3.03;2.22;;;7.80;79.00;;;;;;5177377;27;20088;-56
2021/12/24 06:58:37;;;;;;;3.10;2.08;;;7.80;78.90;;;;;;5177206;27;20065;-56
2021/12/24 07:01:03;;;;;;;2.15;1.65;;;7.80;78.90;;;;;;5160718;27;20038;-56
2021/12/24 07:03:29;;;;;;;3.20;1.98;;;7.80;78.90;;;;;;5156427;27;20043;-56
2021/12/24 07:05:55;;;;;;;3.55;2.05;;;7.90;78.90;;;;;;5156338;27;20046;-56
2021/12/24 07:08:21;;;;;;;2.20;2.00;;;7.80;78.90;;;;;;5155996;27;20039;-55
2021/12/24 07:10:48;;;;;;;4.03;2.00;;;7.80;78.90;;;;;;5155307;27;20053;-56
2021/12/24 07:13:14;;;;;;;3.03;1.85;;;7.90;78.90;;;;;;5155969;27;20042;-56
2021/12/24 07:15:40;;;;;;;2.42;2.10;;;7.80;78.90;;;;;;5155703;27;20141;-56
2021/12/24 07:18:05;;;;;;;1.73;1.60;;;7.80;78.90;;;;;;5136985;27;20043;-55
2021/12/24 07:20:31;;;;;;;1.90;1.70;;;7.80;78.90;;;;;;5156028;27;20066;-55
2021/12/24 07:22:57;;;;;;;2.72;2.10;;;7.80;78.90;;;;;;5155909;27;20039;-56
2021/12/24 07:25:22;;;;;;;2.13;1.75;;;7.80;78.90;;;;;;5155425;27;20055;-56
2021/12/24 07:27:48;;;;;;;1.83;1.60;;;7.80;78.90;;;;;;5155506;27;20042;-55
2021/12/24 07:30:14;;;;;;;2.15;1.90;;;7.80;78.90;;;;;;5155421;27;20042;-56
2021/12/24 07:32:41;;;;;;;1.98;1.70;;;7.90;78.90;;;;;;5155486;27;20039;-56
2021/12/24 07:35:08;;;;;;;2.00;1.70;;;7.80;78.90;;;;;;5136907;27;20074;-56
2021/12/24 07:37:34;;;;;;;2.28;1.80;;;7.80;78.80;;;;;;5171549;27;20042;-56
2021/12/24 07:40:02;;;;;;;3.50;1.92;;;7.80;78.80;;;;;;5157238;27;20056;-56
2021/12/24 07:42:28;;;;;;;2.47;1.90;;;7.80;78.80;;;;;;5175782;27;20102;-57
2021/12/24 07:44:54;;;;;;;2.42;2.00;;;7.80;78.80;;;;;;5173755;27;20069;-56
2021/12/24 07:47:27;;;;;;;1.60;1.50;;;7.80;78.80;;;;;;5173964;27;20089;-57
2021/12/24 07:50:15;;;;;;;2.08;1.88;;;7.90;78.90;;;;;;5168026;27;20049;-55
2021/12/24 07:52:40;;;;;;;2.25;1.65;;;7.90;78.90;;;;;;5169262;27;20075;-56
2021/12/24 07:55:09;;;;;;;2.25;1.60;;;7.80;78.90;;;;;;5175220;27;20034;-56
2021/12/24 07:57:35;;;;;;;3.58;2.15;;;7.90;78.80;;;;;;5172683;27;20042;-55
2021/12/24 08:00:03;;;;;;;2.25;1.80;;;7.90;78.80;;;;;;5165547;27;20045;-56
2021/12/24 08:02:29;;;;;;;2.55;1.42;;;7.90;78.80;;;;;;5161440;27;20129;-57
2021/12/24 08:04:56;;;;;;;1.73;1.50;;;7.90;78.90;;;;;;5159420;27;20039;-56
2021/12/24 08:07:22;;;;;;;3.20;1.80;;;7.90;78.80;;;;;;5137416;27;20050;-56
2021/12/24 08:09:50;;;;;;;2.08;1.60;;;7.90;78.80;;;;;;5164956;27;20134;-56
2021/12/24 08:12:16;;;;;;;2.50;2.30;;;7.90;78.80;;;;;;5136064;27;20069;-54
2021/12/24 08:14:42;;;;;;;1.67;1.58;;;7.90;78.80;;;;;;5168555;27;20497;-54
2021/12/24 08:17:08;;;;;;;2.63;1.25;;;7.90;78.80;;;;;;5173038;27;20478;-55
2021/12/24 08:19:34;;;;;;;2.00;1.60;;;7.90;78.80;;;;;;5135639;27;20050;-54
2021/12/24 08:22:00;;;;;;;2.30;1.73;;;7.90;78.80;;;;;;5154387;27;20031;-56
2021/12/24 08:24:26;;;;;;;1.42;1.30;;;7.90;78.80;;;;;;5153909;27;20124;-55
2021/12/24 08:26:52;;;;;;;2.42;1.42;;;7.90;78.80;;;;;;5153636;27;20046;-55
2021/12/24 08:29:19;;;;;;;2.80;1.88;;;7.90;78.80;;;;;;5153993;27;20126;-55
2021/12/24 08:31:44;;;;;;;1.83;1.50;;;7.90;78.80;;;;;;5155408;27;20050;-56
2021/12/24 08:34:11;;;;;;;2.42;1.70;;;7.90;78.80;;;;;;5169039;27;20510;-57
2021/12/24 08:36:37;;;;;;;2.42;1.80;;;7.90;78.80;;;;;;5165201;27;20126;-52
2021/12/24 08:39:04;;;;;;;2.75;1.50;;;7.90;78.80;;;;;;5169332;27;20038;-53
2021/12/24 08:41:30;;;;;;;1.92;1.60;;;7.90;78.80;;;;;;5174001;27;20057;-53
2021/12/24 08:43:56;;;;;;;1.40;1.20;;;7.90;78.80;;;;;;5175075;27;20414;-55
2021/12/24 08:46:22;;;;;;;1.48;1.38;;;7.90;78.80;;;;;;5163913;27;20081;-56
2021/12/24 08:48:48;;;;;;;1.75;1.60;;;7.90;78.80;;;;;;5164280;27;20049;-55
2021/12/24 08:51:13;;;;;;;1.90;1.55;;;7.90;78.80;;;;;;5162355;27;20034;-56
2021/12/24 08:53:40;;;;;;;1.98;1.63;;;7.90;78.80;;;;;;5165186;27;20034;-56
2021/12/24 08:56:06;;;;;;;2.33;1.75;;;7.90;78.80;;;;;;5163508;27;20035;-56
2021/12/24 08:58:37;;;;;;;2.50;1.65;;;7.90;78.80;;;;;;5163312;27;20447;-55
2021/12/24 09:01:04;;;;;;;1.70;1.58;;;7.90;78.80;;;;;;5161702;27;20041;-56
2021/12/24 09:03:30;;;;;;;8.48;2.47;;;7.90;78.80;;;;;;5159628;27;20170;-53
2021/12/24 09:05:56;;;;;;;3.45;1.92;;;7.90;79.60;;;;;;5134734;27;20122;-58
2021/12/24 09:08:22;;;;;;;5.13;2.25;;;7.90;80.00;;;;;;5153595;27;20137;-61
2021/12/24 09:10:48;;;;;;;3.10;2.30;;;7.90;79.30;;;;;;5153439;27;20046;-56
2021/12/24 09:13:14;;;;;;;2.60;2.03;;;7.90;79.20;;;;;;5153954;27;20107;-59
2021/12/24 09:15:40;;;;;;;3.85;2.13;;;7.90;79.20;;;;;;5153630;27;20043;-58
2021/12/24 09:18:06;;;;;;;2.92;2.20;;;7.90;79.20;;;;;;5153340;27;20043;-51
2021/12/24 09:20:42;;;;;;;3.47;2.03;;;7.90;79.90;;;;;;5153896;27;20047;-56
2021/12/24 09:23:09;;;;;;;2.97;2.00;;;7.90;79.20;;;;;;5134863;27;20047;-56
2021/12/24 09:25:35;;;;;;;2.55;1.90;;;7.90;79.20;;;;;;5153650;27;20046;-60
2021/12/24 09:28:01;;;;;;;2.75;1.80;;;7.90;79.20;;;;;;5153875;27;20039;-59
2021/12/24 09:30:28;;;;;;;2.97;2.22;;;7.90;79.20;;;;;;5153832;27;20440;-61
2021/12/24 09:32:54;;;;;;;3.35;2.08;;;8.00;79.20;;;;;;5153178;27;20035;-59
2021/12/24 09:35:21;;;;;;;3.40;1.95;;;8.00;79.20;;;;;;5154149;27;20073;-56
2021/12/24 09:37:47;;;;;;;3.92;3.10;;;7.90;79.10;;;;;;5153973;27;20091;-53
2021/12/24 09:40:14;;;;;;;3.28;2.42;;;8.00;80.20;;;;;;5135229;27;20478;-49
2021/12/24 09:42:41;;;;;;;4.43;2.33;;;8.00;80.90;;;;;;5154286;27;20034;-50
2021/12/24 09:45:09;;;;;;;4.25;2.20;;;8.00;81.00;;;;;;5153947;27;20050;-50
2021/12/24 09:47:35;;;;;;;3.35;2.38;;;7.90;80.90;;;;;;5153756;27;20558;-54
2021/12/24 09:50:01;;;;;;;4.07;2.10;;;7.90;80.80;;;;;;5153230;27;20084;-49
2021/12/24 09:52:27;;;;;;;3.60;2.08;;;7.90;80.70;;;;;;5135051;27;20061;-50
2021/12/24 09:54:53;;;;;;;4.32;2.05;;;8.00;80.70;;;;;;5154223;27;20110;-49
2021/12/24 09:57:19;;;;;;;4.57;2.35;;;8.00;80.70;;;;;;5153951;27;20391;-44
2021/12/24 09:59:45;;;;;;;2.97;2.10;;;8.00;80.70;;;;;;5154124;27;20050;-50
2021/12/24 10:02:25;;;;;;;4.53;2.03;;;7.90;80.70;;;;;;5156085;27;20554;-45
2021/12/24 10:04:50;;;;;;;3.03;2.17;;;7.90;80.80;;;;;;5157113;27;20123;-49
2021/12/24 10:07:17;;;;;;;3.05;1.73;;;7.90;80.80;;;;;;5171641;27;20117;-49
2021/12/24 10:09:45;;;;;;;3.17;1.85;;;8.00;80.90;;;;;;5167213;27;20447;-45
2021/12/24 10:12:23;;;;;;;3.30;2.10;;;7.90;81.00;;;;;;5157810;27;20038;-49
2021/12/24 10:14:52;;;;;;;3.47;2.10;;;7.90;81.10;;;;;;5157375;27;20038;-49
2021/12/24 10:17:21;;;;;;;2.40;2.13;;;7.90;81.30;;;;;;5158001;27;20031;-48
2021/12/24 10:19:48;;;;;;;2.72;1.58;;;7.90;81.50;;;;;;5157591;27;20078;-48
2021/12/24 10:22:15;;;;;;;2.85;2.05;;;7.90;81.60;;;;;;5156816;27;20061;-53
2021/12/24 10:24:41;;;;;;;2.38;1.63;;;7.90;81.70;;;;;;5138286;27;20443;-50
2021/12/24 10:27:07;;;;;;;2.30;1.80;;;7.90;81.80;;;;;;5155282;27;20398;-46
2021/12/24 10:29:35;;;;;;;2.83;2.10;;;7.90;81.90;;;;;;5164043;27;20042;-56
2021/12/24 10:32:08;;;;;;;3.05;2.00;;;7.90;82.00;;;;;;5156374;27;20035;-53
2021/12/24 10:34:36;;;;;;;2.60;2.28;;;7.90;82.10;;;;;;5172276;27;20565;-54
2021/12/24 10:37:05;;;;;;;3.10;1.80;;;7.90;82.10;;;;;;5176260;27;20050;-57
2021/12/24 10:39:44;;;;;;;2.05;1.83;;;7.90;82.30;;;;;;5158982;27;20055;-51
2021/12/24 10:42:35;;;;;;;2.40;1.60;;;7.90;82.30;;;;;;5166930;27;20042;-46
2021/12/24 10:45:17;;;;;;;3.75;2.08;;;7.90;82.30;;;;;;5165681;27;20105;-57
2021/12/24 10:47:43;;;;;;;2.95;1.80;;;8.00;82.40;;;;;;5163789;27;20030;-51
2021/12/24 10:50:33;;;;;;;1.75;1.40;;;7.90;82.30;;;;;;5165176;27;20042;-51
2021/12/24 10:55:44;;;;;;;2.20;1.70;;;7.90;82.40;;;;;;5164637;27;20046;-50
2021/12/24 10:58:16;;;;;;;2.78;1.80;;;7.90;82.40;;;;;;5165650;27;20477;-55
2021/12/24 11:00:49;;;;;;;1.63;1.50;;;8.00;82.40;;;;;;5125492;27;20046;-52
2021/12/24 11:03:22;;;;;;;2.13;1.60;;;7.90;82.40;;;;;;5164381;27;20069;-51
2021/12/24 11:06:02;;;;;;;2.38;1.70;;;7.90;82.40;;;;;;5165704;27;20070;-47
2021/12/24 11:08:29;;;;;;;2.60;1.70;;;7.90;82.40;;;;;;5165303;27;20042;-57
2021/12/24 11:11:00;;;;;;;2.58;1.58;;;7.90;82.50;;;;;;5166259;27;20058;-57
2021/12/24 11:13:40;;;;;;;3.25;1.88;;;7.90;82.50;;;;;;5164982;27;20082;-52
2021/12/24 11:16:08;;;;;;;1.80;1.67;;;7.90;82.50;;;;;;5164541;27;20065;-57
2021/12/24 11:18:38;;;;;;;2.03;1.50;;;7.90;82.50;;;;;;5165078;27;20099;-52
2021/12/24 11:21:07;;;;;;;1.85;1.38;;;7.90;82.40;;;;;;5166583;27;20034;-58
2021/12/24 11:23:35;;;;;;;2.03;1.77;;;7.90;82.40;;;;;;5166477;27;20047;-54
2021/12/24 11:26:29;;;;;;;2.97;1.92;;;7.90;82.50;;;;;;5164689;27;20118;-57
2021/12/24 11:28:56;;;;;;;1.67;1.58;;;7.90;82.60;;;;;;5166847;27;20085;-53
2021/12/24 11:31:28;;;;;;;1.70;1.60;;;7.90;82.50;;;;;;5164564;27;20074;-58
2021/12/24 11:33:55;;;;;;;2.17;1.77;;;7.90;82.50;;;;;;5156413;27;20039;-55
2021/12/24 11:36:25;;;;;;;2.03;1.60;;;7.90;82.50;;;;;;5155749;27;20528;-58
2021/12/24 11:38:52;;;;;;;1.55;1.40;;;7.90;82.50;;;;;;5155775;27;20066;-54
2021/12/24 11:41:24;;;;;;;1.92;1.73;;;7.90;82.50;;;;;;5166497;27;20138;-57
2021/12/24 11:43:51;;;;;;;2.67;1.60;;;7.90;82.40;;;;;;5157878;27;20038;-58
2021/12/24 11:46:19;;;;;;;1.67;1.30;;;7.90;82.40;;;;;;5176077;27;20508;-58
2021/12/24 11:48:50;;;;;;;1.50;1.27;;;7.90;82.40;;;;;;5176476;27;20156;-55
2021/12/24 11:51:20;;;;;;;3.72;1.80;;;7.90;82.40;;;;;;5170863;27;20502;-48
2021/12/24 11:53:48;;;;;;;2.70;1.88;;;7.90;82.40;;;;;;5164145;27;20048;-56
2021/12/24 11:56:16;;;;;;;1.60;1.50;;;7.90;82.40;;;;;;5171336;27;20045;-48
2021/12/24 11:58:51;;;;;;;1.95;1.70;;;7.90;82.40;;;;;;5159880;27;20034;-53
2021/12/24 12:01:19;;;;;;;2.72;1.58;;;7.90;82.40;;;;;;5138212;27;20460;-51
2021/12/24 12:03:53;;;;;;;1.98;1.50;;;7.90;82.40;;;;;;5163770;27;20030;-57
2021/12/24 12:06:22;;;;;;;2.13;1.77;;;7.90;82.40;;;;;;5165267;27;20045;-54
2021/12/24 12:08:52;;;;;;;3.97;2.92;;;7.90;82.30;;;;;;5164189;27;20042;-55
2021/12/24 12:11:26;;;;;;;2.72;2.00;;;7.90;82.30;;;;;;5163726;27;20046;-60
2021/12/24 12:14:02;;;;;;;2.00;1.80;;;8.00;82.40;;;;;;5163635;27;20049;-56
2021/12/24 12:16:48;;;;;;;2.63;1.90;;;7.90;82.30;;;;;;5166168;27;20046;-57
2021/12/24 12:25:09;;;;;;;1.40;1.30;;;8.00;82.50;;;;;;5163570;27;20038;-55
2021/12/24 12:27:57;;;;;;;2.95;1.60;;;7.90;82.40;;;;;;5169431;27;20038;-56
2021/12/24 12:30:42;;;;;;;1.60;1.48;;;7.90;82.40;;;;;;5175824;27;20042;-58
2021/12/24 12:33:15;;;;;;;1.92;1.70;;;7.90;82.40;;;;;;5175905;27;20122;-58
2021/12/24 12:35:58;;;;;;;1.60;1.40;;;7.90;82.40;;;;;;5163823;27;20078;-53
2021/12/24 12:38:39;;;;;;;1.60;1.40;;;7.90;82.50;;;;;;5155077;27;20039;-56
2021/12/24 12:41:24;;;;;;;1.65;1.50;;;7.90;82.50;;;;;;5154150;27;20117;-55
2021/12/24 12:43:53;;;;;;;1.65;1.55;;;8.00;82.60;;;;;;5153911;27;20130;-57
2021/12/24 12:46:26;;;;;;;1.80;1.55;;;7.90;82.50;;;;;;5155496;27;20042;-56
2021/12/24 12:48:54;;;;;;;2.42;1.67;;;7.90;82.50;;;;;;5154218;27;20121;-57
2021/12/24 12:51:41;;;;;;;1.73;1.60;;;7.90;82.50;;;;;;5155894;27;20118;-48
2021/12/24 12:54:42;;;;;;;1.77;1.60;;;7.90;82.60;;;;;;5154551;27;20536;-55
2021/12/24 12:57:29;;;;;;;1.90;1.60;;;8.00;82.80;;;;;;5165058;27;20489;-51
2021/12/24 13:00:07;;;;;;;1.90;1.48;;;8.00;82.80;;;;;;5174113;27;20046;-56
2021/12/24 13:03:06;;;;;;;1.88;1.60;;;8.00;82.70;;;;;;5155320;27;20053;-51
2021/12/24 13:05:38;;;;;;;1.30;1.10;;;7.90;82.70;;;;;;5154156;27;20299;-50
2021/12/24 13:08:20;;;;;;;1.80;1.40;;;7.90;82.70;;;;;;5154543;27;20046;-52
2021/12/24 13:11:05;;;;;;;2.10;1.80;;;8.00;82.80;;;;;;5133761;27;20061;-48
2021/12/24 13:13:41;;;;;;;2.15;1.60;;;8.00;82.80;;;;;;5154827;27;20043;-51
2021/12/24 13:16:18;;;;;;;1.60;1.50;;;8.00;82.80;;;;;;5153724;27;20038;-51
2021/12/24 13:18:52;;;;;;;1.88;1.67;;;8.00;82.80;;;;;;5154359;27;20077;-50
2021/12/24 13:24:09;;;;;;;4.45;2.88;;;8.00;83.10;;;;;;5174425;27;20038;-57
2021/12/24 13:26:35;;;;;;;3.00;2.25;;;8.00;83.20;;;;;;5170729;27;20413;-54
2021/12/24 13:29:12;;;;;;;3.53;2.65;;;8.00;83.30;;;;;;5161632;27;20042;-55
2021/12/24 13:31:38;;;;;;;3.38;2.20;;;8.00;83.20;;;;;;5159995;27;20083;-55
2021/12/24 13:34:10;;;;;;;3.10;2.40;;;8.00;83.10;;;;;;5162449;27;20049;-56
2021/12/24 13:36:36;;;;;;;2.10;1.90;;;8.00;83.10;;;;;;5162537;27;20125;-56
2021/12/24 13:39:13;;;;;;;1.98;1.77;;;8.00;83.00;;;;;;5163883;27;20038;-56
2021/12/24 13:41:40;;;;;;;2.75;2.20;;;8.00;83.10;;;;;;5168699;27;20038;-57
2021/12/24 13:44:18;;;;;;;2.55;1.95;;;8.00;83.00;;;;;;5167947;27;20046;-57
2021/12/24 13:46:44;;;;;;;2.33;2.00;;;7.90;82.90;;;;;;5169346;27;20046;-56
2021/12/24 13:54:43;;;;;;;2.13;1.92;;;8.00;82.90;;;;;;5087205;28;20062;-57
2021/12/24 13:57:09;;;;;;;2.30;2.00;;;8.00;82.90;;;;;;5093535;28;20055;-57
2021/12/24 13:59:34;;;;;;;2.13;1.92;;;8.00;82.90;;;;;;5093904;28;20044;-57
2021/12/24 14:02:06;;;;;;;2.30;2.10;;;8.00;82.80;;;;;;5093788;28;20039;-57
2021/12/24 14:04:33;;;;;;;2.40;1.90;;;8.00;83.20;;;;;;5092853;28;20093;-57
2021/12/24 14:06:59;;;;;;;2.03;1.83;;;8.00;82.90;;;;;;5093472;28;20519;-57
2021/12/24 14:09:31;;;;;;;2.53;1.63;;;8.00;82.80;;;;;;5093433;28;20131;-57
2021/12/24 14:11:58;;;;;;;2.35;2.08;;;8.00;82.80;;;;;;5092976;28;20449;-58
2021/12/24 14:14:37;;;;;;;2.47;1.80;;;8.00;82.80;;;;;;5093437;28;20536;-56
2021/12/24 14:22:20;;;;;;;3.33;1.90;;;8.00;83.60;;;;;;5092552;28;20177;-52
2021/12/24 14:24:54;;;;;;;4.60;2.15;;;8.00;83.60;;;;;;5086265;28;20040;-55
2021/12/24 14:27:22;;;;;;;3.10;2.20;;;8.00;83.50;;;;;;5082253;28;20055;-54
2021/12/24 14:29:55;;;;;;;2.97;1.90;;;8.00;83.50;;;;;;5153072;27;20102;-53
2021/12/24 14:32:33;;;;;;;3.30;1.90;;;8.00;84.10;;;;;;5165850;27;20027;-55
2021/12/24 14:35:19;;;;;;;3.35;2.10;;;8.00;83.40;;;;;;5165587;27;20114;-56
2021/12/24 14:37:56;;;;;;;;;;;8.00;83.40;;;;;;5146943;27;20049;-54
2021/12/24 14:40:22;;;;;;;2.17;1.80;;;8.00;83.70;;;;;;5167225;27;19918;-54
2021/12/24 14:42:51;;;;;;;3.38;1.83;;;8.00;83.40;;;;;;5167419;27;20030;-56
2021/12/24 14:45:18;;;;;;;2.17;1.90;;;8.00;83.40;;;;;;5165277;27;20076;-53
2021/12/24 14:47:59;;;;;;;2.20;1.80;;;8.00;83.40;;;;;;5165832;27;20121;-54
2021/12/24 14:50:26;;;;;;;2.38;1.92;;;8.00;83.40;;;;;;5166065;27;20084;-50
2021/12/24 14:53:24;;;;;;;1.98;1.65;;;8.00;83.30;;;;;;5167840;27;20077;-53
2021/12/24 14:56:12;;;;;;;2.05;1.70;;;8.00;83.30;;;;;;5176982;27;20050;-56
2021/12/24 14:58:39;;;;;;;2.00;1.75;;;8.00;83.30;;;;;;5166098;27;20059;-56
2021/12/24 15:01:42;;;;;;;2.85;2.00;;;8.00;83.40;;;;;;5156152;27;20054;-55
2021/12/24 15:04:12;;;;;;;2.33;1.98;;;8.00;83.30;;;;;;5139144;27;20055;-52
2021/12/24 15:06:46;;;;;;;2.67;1.80;;;8.00;83.20;;;;;;5155923;27;20094;-55
2021/12/24 15:09:11;;;;;;;2.08;1.77;;;8.00;83.10;;;;;;5156850;27;20042;-55
2021/12/24 15:11:38;;;;;;;2.30;1.70;;;7.90;83.10;;;;;;5155627;27;20053;-52
2021/12/24 15:14:08;;;;;;;2.53;1.95;;;8.00;83.10;;;;;;5155460;27;20505;-50
2021/12/24 15:16:36;;;;;;;2.30;1.80;;;8.00;83.00;;;;;;5155165;27;20046;-55
2021/12/24 15:19:05;;;;;;;2.20;1.67;;;8.00;83.00;;;;;;5158010;27;20031;-55